createdAt,value
2023-03-15T00:01:21.205Z,70.16
2023-03-15T00:03:49.011Z,70.13
2023-03-15T00:06:16.839Z,69.93
2023-03-15T00:08:47.741Z,70.11
2023-03-15T00:11:16.978Z,69.51
2023-03-15T00:13:45.213Z,69.45
2023-03-15T00:16:17.860Z,69.59
2023-03-15T00:18:47.448Z,69.49
2023-03-15T00:21:15.389Z,69.76
2023-03-15T00:23:42.638Z,69.66
2023-03-15T00:26:09.611Z,69.43
2023-03-15T00:28:37.338Z,69.27
2023-03-15T00:31:13.548Z,69.36
2023-03-15T00:33:41.785Z,68.96
2023-03-15T00:36:10.293Z,68.76
2023-03-15T00:38:39.392Z,68.45
2023-03-15T00:41:12.310Z,68.36
2023-03-15T00:43:41.080Z,68.43
2023-03-15T00:46:08.882Z,68.06
2023-03-15T00:48:36.984Z,67.77
2023-03-15T00:51:16.001Z,67.61
2023-03-15T00:53:45.969Z,67.35
2023-03-15T00:56:19.104Z,67.28
2023-03-15T00:58:46.585Z,67.08
2023-03-15T01:01:19.942Z,66.66
2023-03-15T01:03:47.608Z,65.67
2023-03-15T01:06:20.928Z,65.58
2023-03-15T01:08:48.807Z,65.49
2023-03-15T01:11:20.128Z,65.14
2023-03-15T01:13:47.356Z,65.31
2023-03-15T01:16:15.400Z,64.53
2023-03-15T01:18:44.157Z,63.36
2023-03-15T01:21:13.637Z,62.82
2023-03-15T01:23:41.359Z,63.21
2023-03-15T01:26:11.888Z,62.49
2023-03-15T01:28:39.186Z,62.01
2023-03-15T01:31:06.364Z,61.83
2023-03-15T01:33:34.192Z,61.02
2023-03-15T01:36:04.033Z,60.62
2023-03-15T01:38:31.277Z,59.93
2023-03-15T01:40:58.683Z,59.52
2023-03-15T01:43:28.015Z,59.12
2023-03-15T01:46:04.216Z,58.18
2023-03-15T01:48:47.129Z,56.48
2023-03-15T01:51:22.870Z,54.54
2023-03-15T01:54:22.055Z,54.98
2023-03-15T01:56:56.465Z,54.90
2023-03-15T01:59:37.084Z,53.53
2023-03-15T02:02:05.400Z,52.27
2023-03-15T02:04:46.666Z,51.57
2023-03-15T02:07:18.074Z,50.21
2023-03-15T02:09:55.113Z,48.38
2023-03-15T02:12:22.294Z,47.69
2023-03-15T02:14:51.952Z,47.50
2023-03-15T02:17:29.120Z,46.94
2023-03-15T02:20:12.506Z,45.87
2023-03-15T02:23:07.909Z,44.72
2023-03-15T02:26:13.812Z,43.92
2023-03-15T02:28:42.050Z,43.63
2023-03-15T02:31:09.549Z,43.62
2023-03-15T02:33:44.232Z,43.62
2023-03-15T02:36:21.805Z,43.44
2023-03-15T02:38:50.273Z,43.44
2023-03-15T02:41:22.165Z,43.19
2023-03-15T02:43:54.424Z,42.76
2023-03-15T02:46:22.576Z,42.08
2023-03-15T02:48:54.236Z,41.96
2023-03-15T02:51:24.831Z,41.70
2023-03-15T02:53:52.000Z,41.70
2023-03-15T02:56:19.862Z,42.10
2023-03-15T02:58:47.603Z,42.50
2023-03-15T03:01:16.522Z,42.86
2023-03-15T03:03:45.949Z,43.01
2023-03-15T03:06:18.117Z,43.11
2023-03-15T03:08:47.915Z,43.55
2023-03-15T03:11:18.508Z,43.66
2023-03-15T03:13:46.124Z,44.06
2023-03-15T03:16:13.505Z,44.12
2023-03-15T03:18:42.348Z,44.64
2023-03-15T03:21:10.098Z,45.13
2023-03-15T03:23:37.642Z,45.19
2023-03-15T03:26:16.923Z,45.93
2023-03-15T03:28:47.715Z,46.59
2023-03-15T03:31:18.990Z,46.92
2023-03-15T03:33:46.426Z,47.30
2023-03-15T03:36:13.859Z,47.54
2023-03-15T03:38:43.174Z,47.95
2023-03-15T03:41:11.470Z,48.55
2023-03-15T03:43:39.485Z,49.50
2023-03-15T03:46:07.521Z,49.97
2023-03-15T03:48:38.462Z,50.07
2023-03-15T03:51:07.084Z,49.95
2023-03-15T03:53:34.322Z,50.46
2023-03-15T03:56:04.226Z,50.76
2023-03-15T03:58:31.868Z,50.61
2023-03-15T04:01:05.529Z,50.86
2023-03-15T04:03:37.670Z,50.98
2023-03-15T04:06:09.920Z,51.29
2023-03-15T04:08:41.911Z,51.50
2023-03-15T04:11:12.390Z,51.91
2023-03-15T04:13:41.061Z,52.23
2023-03-15T04:16:09.269Z,52.09
2023-03-15T04:18:50.022Z,52.40
2023-03-15T04:21:17.229Z,52.46
2023-03-15T04:23:45.739Z,52.27
2023-03-15T04:26:34.706Z,51.85
2023-03-15T04:29:24.358Z,51.86
2023-03-15T04:32:24.364Z,51.43
2023-03-15T04:35:06.650Z,51.69
2023-03-15T04:37:44.058Z,51.88
2023-03-15T04:40:30.811Z,52.19
2023-03-15T04:43:33.262Z,52.63
2023-03-15T04:46:21.401Z,52.53
2023-03-15T04:49:28.174Z,52.62
2023-03-15T04:52:02.814Z,52.43
2023-03-15T04:54:59.263Z,52.47
2023-03-15T04:57:29.086Z,52.68
2023-03-15T05:00:16.696Z,52.62
2023-03-15T05:03:04.906Z,52.55
2023-03-15T05:05:51.421Z,52.63
2023-03-15T05:08:38.752Z,52.47
2023-03-15T05:11:06.287Z,52.52
2023-03-15T05:13:39.177Z,52.68
2023-03-15T05:16:26.279Z,52.60
2023-03-15T05:19:26.626Z,52.46
2023-03-15T05:22:29.235Z,51.79
2023-03-15T05:25:14.014Z,51.06
2023-03-15T05:27:59.694Z,50.43
2023-03-15T05:30:34.988Z,49.73
2023-03-15T05:33:12.121Z,49.04
2023-03-15T05:35:49.008Z,48.47
2023-03-15T05:38:33.495Z,48.28
2023-03-15T05:41:18.353Z,47.15
2023-03-15T05:44:08.480Z,45.62
2023-03-15T05:46:54.031Z,44.92
2023-03-15T05:49:59.737Z,44.13
2023-03-15T05:52:41.897Z,42.99
2023-03-15T05:55:32.345Z,41.88
2023-03-15T05:58:22.590Z,40.16
2023-03-15T06:01:13.328Z,40.47
2023-03-15T06:04:11.133Z,39.66
2023-03-15T06:06:39.743Z,38.98
2023-03-15T06:09:10.052Z,38.98
2023-03-15T06:11:37.278Z,38.97
2023-03-15T06:14:04.682Z,39.15
2023-03-15T06:16:41.811Z,38.63
2023-03-15T06:19:09.074Z,38.87
2023-03-15T06:21:36.256Z,38.37
2023-03-15T06:24:09.532Z,37.83
2023-03-15T06:26:36.940Z,38.20
2023-03-15T06:29:05.035Z,38.48
2023-03-15T06:31:33.128Z,38.49
2023-03-15T06:34:06.263Z,39.73
2023-03-15T06:36:34.950Z,39.95
2023-03-15T06:39:02.931Z,40.62
2023-03-15T06:41:30.401Z,40.56
2023-03-15T06:44:04.756Z,40.55
2023-03-15T06:46:32.155Z,40.90
2023-03-15T06:48:59.960Z,41.15
2023-03-15T06:51:27.771Z,41.11
2023-03-15T06:53:55.031Z,41.06
2023-03-15T06:56:22.789Z,40.91
2023-03-15T06:58:49.922Z,40.95
2023-03-15T07:01:17.219Z,40.66
2023-03-15T07:03:44.316Z,40.11
2023-03-15T07:06:11.358Z,39.86
2023-03-15T07:08:38.545Z,40.26
2023-03-15T07:11:06.504Z,40.89
2023-03-15T07:13:33.615Z,40.73
2023-03-15T07:16:00.955Z,40.18
2023-03-15T07:18:28.064Z,41.65
2023-03-15T07:21:04.520Z,42.10
2023-03-15T07:23:31.609Z,42.92
2023-03-15T07:25:58.737Z,42.52
2023-03-15T07:28:27.054Z,42.95
2023-03-15T07:30:59.966Z,43.57
2023-03-15T07:33:28.590Z,43.21
2023-03-15T07:35:55.902Z,43.23
2023-03-15T07:38:25.020Z,43.52
2023-03-15T07:40:52.686Z,43.01
2023-03-15T07:43:19.965Z,43.40
2023-03-15T07:45:51.106Z,44.50
2023-03-15T07:48:18.714Z,43.31
2023-03-15T07:50:46.402Z,41.19
2023-03-15T07:53:13.465Z,40.73
2023-03-15T07:55:40.688Z,39.95
2023-03-15T07:58:07.741Z,39.76
2023-03-15T08:00:35.090Z,39.30
2023-03-15T08:03:02.440Z,39.94
2023-03-15T08:05:29.724Z,40.21
2023-03-15T08:07:57.015Z,40.59
2023-03-15T08:10:24.350Z,41.67
2023-03-15T08:12:51.805Z,42.91
2023-03-15T08:15:19.836Z,44.26
2023-03-15T08:17:49.994Z,44.90
2023-03-15T08:20:20.951Z,44.71
2023-03-15T08:22:49.189Z,44.80
2023-03-15T08:25:21.716Z,44.85
2023-03-15T08:27:49.419Z,44.25
2023-03-15T08:30:19.351Z,44.74
2023-03-15T08:32:47.933Z,43.94
2023-03-15T08:35:17.025Z,43.65
2023-03-15T08:37:48.152Z,42.29
2023-03-15T08:40:26.305Z,41.93
2023-03-15T08:42:54.403Z,42.38
2023-03-15T08:45:24.901Z,42.20
2023-03-15T08:47:59.131Z,42.50
2023-03-15T08:50:27.170Z,42.85
2023-03-15T08:52:54.704Z,43.20
2023-03-15T08:55:21.987Z,43.04
2023-03-15T08:57:49.531Z,43.30
2023-03-15T09:00:20.875Z,42.74
2023-03-15T09:02:49.069Z,42.67
2023-03-15T09:05:17.311Z,40.63
2023-03-15T09:07:45.669Z,41.59
2023-03-15T09:10:15.537Z,41.09
2023-03-15T09:12:49.221Z,40.87
2023-03-15T09:15:17.008Z,40.52
2023-03-15T09:17:44.539Z,39.71
2023-03-15T09:20:16.996Z,39.19
2023-03-15T09:22:45.209Z,37.98
2023-03-15T09:25:12.216Z,38.54
2023-03-15T09:27:39.284Z,38.44
2023-03-15T09:30:07.228Z,38.13
2023-03-15T09:32:37.605Z,37.40
2023-03-15T09:35:08.130Z,36.94
2023-03-15T09:37:36.065Z,36.63
2023-03-15T09:40:04.753Z,35.76
2023-03-15T09:43:09.098Z,34.99
2023-03-15T09:46:19.749Z,33.34
2023-03-15T09:48:57.402Z,33.40
2023-03-15T09:51:35.572Z,33.78
2023-03-15T09:54:06.163Z,33.72
2023-03-15T09:56:46.142Z,32.94
2023-03-15T09:59:17.818Z,33.38
2023-03-15T10:01:47.814Z,33.48
2023-03-15T10:04:34.964Z,33.35
2023-03-15T10:07:04.227Z,34.32
2023-03-15T10:09:33.843Z,34.39
2023-03-15T10:12:13.572Z,33.96
2023-03-15T10:14:59.125Z,34.16
2023-03-15T10:18:11.172Z,34.54
2023-03-15T10:20:44.732Z,34.05
2023-03-15T10:23:43.512Z,33.42
2023-03-15T10:26:14.674Z,33.11
2023-03-15T10:28:43.986Z,33.71
2023-03-15T10:31:25.669Z,34.72
2023-03-15T10:33:57.468Z,35.26
2023-03-15T10:36:25.855Z,32.10
2023-03-15T10:38:53.300Z,31.11
2023-03-15T10:41:40.130Z,36.37
2023-03-15T10:44:17.014Z,39.63
2023-03-15T10:47:04.652Z,40.29
2023-03-15T10:49:36.878Z,35.91
2023-03-15T10:52:06.047Z,36.71
2023-03-15T10:54:35.600Z,36.83
2023-03-15T10:57:22.210Z,37.68
2023-03-15T11:00:00.419Z,38.55
2023-03-15T11:02:27.659Z,38.22
2023-03-15T11:05:04.727Z,41.76
2023-03-15T11:07:35.985Z,45.71
2023-03-15T11:10:06.465Z,45.91
2023-03-15T11:12:35.165Z,48.94
2023-03-15T11:15:14.389Z,49.14
2023-03-15T11:17:50.264Z,47.13
2023-03-15T11:20:38.425Z,46.86
2023-03-15T11:23:20.696Z,50.81
2023-03-15T11:25:47.954Z,47.87
2023-03-15T11:28:20.292Z,47.97
2023-03-15T11:30:48.767Z,48.40
2023-03-15T11:33:43.728Z,43.56
2023-03-15T11:36:19.398Z,43.18
2023-03-15T11:38:47.426Z,41.36
2023-03-15T11:41:32.828Z,43.44
2023-03-15T11:44:00.627Z,45.57
2023-03-15T11:46:39.426Z,43.86
2023-03-15T11:49:36.686Z,45.76
2023-03-15T11:52:05.133Z,45.83
2023-03-15T11:54:33.052Z,46.66
2023-03-15T11:57:07.863Z,47.05
2023-03-15T11:59:38.407Z,46.13
2023-03-15T12:02:11.544Z,49.23
2023-03-15T12:04:44.973Z,50.01
2023-03-15T12:07:18.953Z,46.98
2023-03-15T12:10:05.375Z,46.96
2023-03-15T12:12:32.393Z,46.86
2023-03-15T12:15:04.045Z,45.96
2023-03-15T12:17:31.141Z,45.97
2023-03-15T12:20:23.992Z,49.81
2023-03-15T12:22:52.897Z,49.03
2023-03-15T12:25:54.733Z,47.25
2023-03-15T12:28:51.141Z,45.92
2023-03-15T12:31:19.318Z,45.80
2023-03-15T12:33:53.035Z,45.01
2023-03-15T12:36:37.108Z,43.53
2023-03-15T12:39:16.273Z,44.51
2023-03-15T12:41:46.887Z,41.36
2023-03-15T12:44:33.423Z,39.78
2023-03-15T12:47:02.731Z,43.10
2023-03-15T12:49:36.417Z,43.26
2023-03-15T12:52:11.372Z,43.37
2023-03-15T12:54:49.924Z,43.83
2023-03-15T12:57:22.852Z,43.04
2023-03-15T13:00:21.898Z,46.21
2023-03-15T13:02:56.225Z,45.10
2023-03-15T13:05:38.150Z,44.82
2023-03-15T13:08:26.188Z,44.83
2023-03-15T13:11:11.987Z,47.71
2023-03-15T13:14:03.822Z,47.23
2023-03-15T13:16:44.657Z,44.93
2023-03-15T13:19:26.398Z,46.95
2023-03-15T13:22:18.319Z,44.15
2023-03-15T13:25:17.614Z,42.45
2023-03-15T13:28:04.142Z,44.10
2023-03-15T13:30:35.571Z,43.68
2023-03-15T13:33:06.680Z,45.99
2023-03-15T13:35:34.519Z,42.91
2023-03-15T13:38:22.402Z,42.59
2023-03-15T13:40:49.689Z,43.07
2023-03-15T13:43:17.373Z,41.19
2023-03-15T13:45:44.879Z,42.25
2023-03-15T13:48:13.399Z,42.04
2023-03-15T13:50:41.095Z,42.76
2023-03-15T13:53:08.409Z,40.19
2023-03-15T13:55:37.290Z,40.17
2023-03-15T13:58:09.441Z,38.59
2023-03-15T14:00:37.440Z,37.90
2023-03-15T14:03:22.586Z,37.47
2023-03-15T14:05:53.075Z,36.65
2023-03-15T14:08:31.693Z,37.23
2023-03-15T14:11:07.675Z,36.43
2023-03-15T14:13:47.498Z,37.34
2023-03-15T14:16:17.620Z,37.53
2023-03-15T14:18:44.825Z,38.78
2023-03-15T14:21:17.613Z,39.28
2023-03-15T14:23:47.779Z,39.78
2023-03-15T14:26:28.774Z,41.91
2023-03-15T14:29:18.250Z,43.69
2023-03-15T14:31:51.183Z,44.52
2023-03-15T14:34:25.485Z,48.58
2023-03-15T14:36:55.773Z,50.50
2023-03-15T14:39:32.592Z,49.15
2023-03-15T14:41:59.741Z,49.40
2023-03-15T14:44:26.866Z,48.97
2023-03-15T14:46:54.181Z,50.17
2023-03-15T14:49:27.043Z,49.79
2023-03-15T14:52:03.968Z,51.18
2023-03-15T14:54:32.777Z,54.34
2023-03-15T14:57:00.529Z,56.10
2023-03-15T14:59:27.705Z,56.19
2023-03-15T15:01:57.806Z,57.52
2023-03-15T15:04:34.288Z,57.10
2023-03-15T15:07:03.809Z,58.58
2023-03-15T15:09:31.770Z,58.76
2023-03-15T15:11:58.919Z,59.66
2023-03-15T15:14:26.230Z,60.06
2023-03-15T15:16:53.447Z,62.26
2023-03-15T15:19:20.850Z,62.37
2023-03-15T15:21:48.088Z,56.62
2023-03-15T15:24:17.692Z,53.18
2023-03-15T15:26:44.966Z,46.78
2023-03-15T15:29:16.793Z,45.85
2023-03-15T15:31:45.234Z,45.35
2023-03-15T15:34:13.222Z,46.03
2023-03-15T15:36:43.659Z,45.41
2023-03-15T15:39:21.092Z,45.80
2023-03-15T15:41:48.725Z,45.16
2023-03-15T15:44:19.005Z,44.02
2023-03-15T15:46:46.577Z,42.40
2023-03-15T15:49:13.813Z,46.45
2023-03-15T15:51:51.525Z,48.45
2023-03-15T15:54:22.099Z,48.39
2023-03-15T15:56:56.110Z,48.40
2023-03-15T15:59:25.831Z,41.42
2023-03-15T16:02:01.136Z,40.04
2023-03-15T16:04:29.680Z,40.71
2023-03-15T16:07:00.228Z,39.28
2023-03-15T16:09:30.207Z,38.22
2023-03-15T16:11:57.613Z,37.62
2023-03-15T16:14:24.913Z,37.30
2023-03-15T16:16:52.068Z,38.22
2023-03-15T16:19:19.371Z,37.52
2023-03-15T16:21:49.761Z,36.77
2023-03-15T16:24:22.176Z,37.17
2023-03-15T16:26:50.175Z,37.81
2023-03-15T16:29:23.331Z,39.03
2023-03-15T16:31:51.279Z,37.52
2023-03-15T16:34:19.914Z,37.63
2023-03-15T16:36:49.750Z,36.57
2023-03-15T16:39:17.617Z,37.08
2023-03-15T16:41:44.798Z,36.77
2023-03-15T16:44:13.954Z,37.59
2023-03-15T16:46:41.291Z,35.86
2023-03-15T16:49:08.789Z,34.02
2023-03-15T16:51:39.415Z,34.42
2023-03-15T16:54:19.655Z,35.46
2023-03-15T16:56:51.719Z,36.73
2023-03-15T16:59:18.908Z,36.35
2023-03-15T17:01:46.235Z,34.74
2023-03-15T17:04:15.026Z,35.21
2023-03-15T17:06:45.571Z,36.15
2023-03-15T17:09:19.761Z,37.02
2023-03-15T17:11:48.844Z,35.79
2023-03-15T17:14:23.616Z,35.37
2023-03-15T17:16:51.252Z,32.46
2023-03-15T17:19:18.557Z,32.02
2023-03-15T17:21:46.019Z,35.03
2023-03-15T17:24:14.057Z,37.33
2023-03-15T17:26:42.057Z,36.81
2023-03-15T17:29:09.544Z,35.00
2023-03-15T17:31:37.794Z,35.55
2023-03-15T17:34:08.274Z,35.76
2023-03-15T17:36:37.755Z,36.89
2023-03-15T17:39:06.945Z,37.28
2023-03-15T17:41:37.219Z,37.92
2023-03-15T17:44:05.018Z,37.91
2023-03-15T17:46:33.496Z,37.66
2023-03-15T17:49:04.147Z,38.25
2023-03-15T17:51:34.517Z,38.59
2023-03-15T17:54:02.208Z,39.06
2023-03-15T17:56:30.605Z,38.93
2023-03-15T17:58:58.018Z,37.88
2023-03-15T18:01:28.888Z,37.93
2023-03-15T18:03:57.672Z,38.08
2023-03-15T18:06:24.973Z,38.44
2023-03-15T18:08:52.590Z,37.69
2023-03-15T18:11:36.150Z,36.88
2023-03-15T18:14:04.065Z,36.04
2023-03-15T18:16:32.229Z,36.31
2023-03-15T18:18:59.513Z,38.54
2023-03-15T18:21:28.238Z,38.57
2023-03-15T18:23:55.664Z,37.71
2023-03-15T18:26:23.005Z,36.38
2023-03-15T18:28:51.681Z,36.57
2023-03-15T18:31:21.816Z,37.60
2023-03-15T18:33:50.539Z,39.11
2023-03-15T18:36:18.905Z,39.17
2023-03-15T18:38:46.647Z,38.84
2023-03-15T18:41:21.140Z,38.15
2023-03-15T18:43:52.398Z,38.75
2023-03-15T18:46:25.169Z,39.10
2023-03-15T18:48:54.136Z,40.92
2023-03-15T18:51:25.204Z,41.07
2023-03-15T18:53:53.507Z,41.17
2023-03-15T18:56:26.234Z,41.58
2023-03-15T18:58:55.031Z,41.38
2023-03-15T19:01:24.672Z,41.65
2023-03-15T19:03:53.697Z,42.26
2023-03-15T19:06:22.653Z,43.34
2023-03-15T19:08:53.767Z,44.11
2023-03-15T19:11:24.078Z,45.59
2023-03-15T19:13:51.674Z,46.01
2023-03-15T19:16:22.696Z,43.04
2023-03-15T19:18:52.301Z,44.99
2023-03-15T19:21:21.070Z,43.44
2023-03-15T19:23:48.816Z,43.01
2023-03-15T19:26:16.714Z,43.81
2023-03-15T19:28:45.309Z,45.12
2023-03-15T19:31:15.965Z,45.65
2023-03-15T19:33:45.067Z,45.99
2023-03-15T19:36:13.204Z,46.83
2023-03-15T19:38:41.023Z,46.45
2023-03-15T19:41:12.654Z,46.25
2023-03-15T19:43:43.681Z,46.53
2023-03-15T19:46:15.718Z,46.67
2023-03-15T19:48:43.854Z,46.88
2023-03-15T19:51:11.855Z,47.44
2023-03-15T19:53:39.950Z,46.40
2023-03-15T19:56:10.444Z,45.51
2023-03-15T19:58:39.465Z,45.64
2023-03-15T20:01:07.782Z,45.16
2023-03-15T20:03:36.104Z,44.92
2023-03-15T20:06:15.179Z,44.43
2023-03-15T20:08:44.102Z,43.35
2023-03-15T20:11:20.497Z,43.10
2023-03-15T20:13:48.717Z,42.59
2023-03-15T20:16:17.089Z,42.45
2023-03-15T20:18:46.038Z,42.32
2023-03-15T20:21:15.996Z,42.13
2023-03-15T20:23:48.688Z,41.85
2023-03-15T20:26:18.751Z,42.05
2023-03-15T20:28:47.722Z,41.54
2023-03-15T20:31:19.160Z,41.50
2023-03-15T20:33:51.761Z,41.50
2023-03-15T20:36:21.018Z,41.61
2023-03-15T20:38:49.680Z,44.66
2023-03-15T20:41:21.744Z,44.84
2023-03-15T20:43:52.820Z,42.40
2023-03-15T20:46:24.479Z,40.41
2023-03-15T20:48:54.578Z,40.30
2023-03-15T20:51:25.883Z,40.80
2023-03-15T20:53:55.975Z,40.80
2023-03-15T20:56:25.114Z,41.21
2023-03-15T20:58:55.446Z,41.61
2023-03-15T21:01:25.256Z,42.61
2023-03-15T21:03:56.672Z,45.07
2023-03-15T21:06:27.380Z,50.96
2023-03-15T21:08:57.502Z,48.98
2023-03-15T21:11:29.540Z,49.46
2023-03-15T21:13:58.510Z,47.86
2023-03-15T21:16:27.212Z,46.44
2023-03-15T21:18:57.278Z,45.96
2023-03-15T21:21:28.322Z,45.67
2023-03-15T21:23:57.171Z,44.79
2023-03-15T21:26:25.606Z,43.17
2023-03-15T21:28:55.617Z,42.28
2023-03-15T21:31:24.317Z,42.58
2023-03-15T21:33:53.544Z,42.65
2023-03-15T21:36:23.014Z,43.49
2023-03-15T21:38:52.669Z,44.36
2023-03-15T21:41:23.834Z,45.20
2023-03-15T21:43:52.383Z,46.24
2023-03-15T21:46:20.998Z,46.90
2023-03-15T21:48:50.244Z,47.21
2023-03-15T21:51:20.028Z,47.49
2023-03-15T21:53:51.330Z,47.81
2023-03-15T21:56:29.303Z,48.06
2023-03-15T21:59:03.716Z,48.94
2023-03-15T22:01:35.276Z,48.01
2023-03-15T22:04:03.908Z,48.28
2023-03-15T22:06:33.151Z,48.51
2023-03-15T22:09:01.399Z,48.45
2023-03-15T22:11:29.533Z,48.47
2023-03-15T22:13:57.799Z,48.59
2023-03-15T22:16:25.863Z,48.87
2023-03-15T22:18:53.561Z,48.76
2023-03-15T22:21:22.117Z,49.25
2023-03-15T22:23:49.495Z,49.11
2023-03-15T22:26:18.090Z,49.27
2023-03-15T22:28:45.338Z,49.48
2023-03-15T22:31:12.682Z,49.53
2023-03-15T22:33:42.316Z,49.70
2023-03-15T22:36:09.968Z,50.00
2023-03-15T22:38:40.313Z,49.93
2023-03-15T22:41:10.438Z,49.62
2023-03-15T22:43:39.076Z,49.16
2023-03-15T22:46:06.365Z,49.36
2023-03-15T22:48:33.653Z,49.91
2023-03-15T22:51:06.092Z,50.33
2023-03-15T22:53:34.436Z,50.60
2023-03-15T22:56:01.613Z,50.25
2023-03-15T22:58:28.780Z,49.98
2023-03-15T23:00:56.012Z,49.79
2023-03-15T23:03:23.461Z,49.46
2023-03-15T23:05:50.794Z,49.56
2023-03-15T23:08:17.887Z,49.21
2023-03-15T23:10:45.169Z,49.31
2023-03-15T23:13:12.373Z,48.94
2023-03-15T23:15:39.823Z,49.05
2023-03-15T23:18:07.681Z,48.91
2023-03-15T23:20:35.118Z,49.26
2023-03-15T23:23:02.178Z,49.58
2023-03-15T23:25:29.566Z,49.56
2023-03-15T23:27:57.206Z,49.64
2023-03-15T23:30:24.348Z,49.55
2023-03-15T23:32:57.829Z,48.91
2023-03-15T23:35:24.930Z,48.47
2023-03-15T23:37:53.177Z,48.47
2023-03-15T23:40:21.244Z,48.56
2023-03-15T23:42:48.840Z,48.66
2023-03-15T23:45:16.046Z,48.68
2023-03-15T23:47:43.225Z,48.71
2023-03-15T23:50:12.762Z,49.21
2023-03-15T23:52:40.377Z,49.62
2023-03-15T23:55:08.074Z,49.58
2023-03-15T23:57:35.607Z,49.84
